Terminal Aerodrome Forecast
Issued by NWS Wilmington, NC

Home | Current Version | Previous Version | Text Only | Print | Product List | Glossary On
Versions: 1 2 3 4 5 6 7 8 9 10 11 12 13 14 15 16 17 18 19 20 21 22 23 24
000
FTUS42 KILM 181134 CCA
TAFMYR
TAF COR
KMYR 181134Z 1812/1912 35003KT 6SM -SHRA BR SCT005 BKN025 BKN070
      TEMPO 1812/1814 2SM -SHRA BR BKN005
     FM181400 06005KT 5SM -SHRA BR SCT010 BKN020
     FM181500 11007KT P6SM VCSH SCT015 BKN040
     FM190100 06003KT P6SM BKN100=

USA.gov is the U.S. government's official web portal to all federal, state and local government web resources and services.